Time;durP1;ratioP1;P1;durP2;ratioP2;P2;SDS_P1;SDS_P2;PMS_P1;PMS_P2;Temp;Humidity;BMP_temperature;BMP_pressure;BME280_temperature;BME280_humidity;BME280_pressure;Samples;Min_cycle;Max_cycle;Signal;HPM_P1;HPM_P2
2023/04/29 00:00:18;;;;;;;1.20;0.82;;;10.30;99.90;;;;;;7596828;19;20029;-71
2023/04/29 00:02:50;;;;;;;1.85;0.80;;;10.30;99.90;;;;;;7598993;19;20110;-71
2023/04/29 00:05:23;;;;;;;1.58;0.70;;;10.30;99.90;;;;;;7599690;19;20029;-71
2023/04/29 00:07:56;;;;;;;4.55;1.25;;;10.30;99.90;;;;;;7597175;19;20014;-70
2023/04/29 00:10:29;;;;;;;7.05;1.35;;;10.30;99.90;;;;;;7592654;19;21868;-71
2023/04/29 00:13:01;;;;;;;1.45;1.25;;;10.20;99.90;;;;;;7600322;19;20050;-71
2023/04/29 00:15:34;;;;;;;5.43;0.93;;;10.20;99.90;;;;;;7595484;19;20014;-70
2023/04/29 00:18:06;;;;;;;1.75;1.20;;;10.20;99.90;;;;;;7596720;19;22112;-70
2023/04/29 00:20:38;;;;;;;3.13;1.15;;;10.30;99.90;;;;;;7587540;19;20053;-70
2023/04/29 00:23:11;;;;;;;3.50;1.10;;;10.20;99.90;;;;;;7596508;19;20018;-70
2023/04/29 00:25:43;;;;;;;1.40;0.90;;;10.20;99.90;;;;;;7595028;19;20029;-70
2023/04/29 00:28:15;;;;;;;1.52;1.00;;;10.20;99.90;;;;;;7594362;19;20671;-70
2023/04/29 00:30:47;;;;;;;1.20;1.00;;;10.20;99.90;;;;;;7595889;19;20023;-71
2023/04/29 00:33:20;;;;;;;1.40;0.90;;;10.20;99.90;;;;;;7592068;19;20033;-70
2023/04/29 00:35:53;;;;;;;2.05;1.27;;;10.10;99.90;;;;;;7599927;19;20973;-72
2023/04/29 00:38:25;;;;;;;1.15;1.05;;;10.20;99.90;;;;;;7589655;19;20581;-71
2023/04/29 00:40:57;;;;;;;1.08;1.02;;;10.20;99.90;;;;;;7599153;19;20101;-71
2023/04/29 00:43:30;;;;;;;1.25;1.15;;;10.20;99.90;;;;;;7595973;19;20018;-71
2023/04/29 00:46:02;;;;;;;1.33;1.20;;;10.20;99.90;;;;;;7597699;19;20070;-70
2023/04/29 00:48:35;;;;;;;3.00;1.40;;;10.20;99.90;;;;;;7594798;19;20018;-72
2023/04/29 00:51:07;;;;;;;3.08;1.10;;;10.30;99.90;;;;;;7592064;19;20018;-71
2023/04/29 00:53:40;;;;;;;1.73;1.35;;;10.30;99.90;;;;;;7593527;19;20026;-72
2023/04/29 00:56:13;;;;;;;4.60;1.53;;;10.30;99.90;;;;;;7591882;19;20108;-70
2023/04/29 00:58:49;;;;;;;3.72;1.27;;;10.30;99.90;;;;;;7596455;19;20060;-72
2023/04/29 01:01:22;;;;;;;1.20;0.90;;;10.40;99.90;;;;;;7592086;19;20024;-71
2023/04/29 01:03:55;;;;;;;2.72;1.73;;;10.40;99.90;;;;;;7598898;19;20034;-71
2023/04/29 01:07:02;;;;;;;1.52;1.15;;;10.50;99.90;;;;;;7590223;19;20086;-72
2023/04/29 01:10:08;;;;;;;1.50;1.00;;;10.50;99.90;;;;;;7565964;19;20018;-70
2023/04/29 01:12:45;;;;;;;1.13;0.73;;;10.60;99.90;;;;;;7577897;19;20138;-71
2023/04/29 01:15:26;;;;;;;1.10;0.98;;;10.60;99.90;;;;;;7583388;19;20497;-70
2023/04/29 01:18:03;;;;;;;3.35;1.10;;;10.60;99.90;;;;;;7570452;19;20014;-72
2023/04/29 01:20:37;;;;;;;1.10;0.80;;;10.70;99.90;;;;;;7587808;19;20021;-72
2023/04/29 01:23:09;;;;;;;1.80;0.90;;;10.60;99.90;;;;;;7594307;19;20094;-72
2023/04/29 01:25:45;;;;;;;4.22;1.25;;;10.80;99.90;;;;;;7585083;19;20025;-71
2023/04/29 01:28:48;;;;;;;2.00;1.48;;;10.70;99.90;;;;;;7592665;19;20854;-71
2023/04/29 01:32:07;;;;;;;2.65;0.93;;;10.70;99.90;;;;;;7592118;19;20281;-71
2023/04/29 01:35:15;;;;;;;1.45;1.05;;;10.70;99.90;;;;;;7596494;19;20022;-72
2023/04/29 01:38:13;;;;;;;2.47;1.02;;;10.70;99.90;;;;;;7599209;19;20033;-72
2023/04/29 01:41:09;;;;;;;2.40;1.35;;;10.70;99.90;;;;;;7604884;19;20014;-72
2023/04/29 01:43:45;;;;;;;2.28;1.70;;;10.80;99.90;;;;;;7601551;19;20025;-71
2023/04/29 01:46:23;;;;;;;4.40;1.90;;;10.70;99.90;;;;;;7601319;19;20019;-71
2023/04/29 01:48:59;;;;;;;5.05;1.90;;;10.70;99.90;;;;;;7601215;19;20155;-72
2023/04/29 01:51:33;;;;;;;2.08;1.60;;;10.70;99.90;;;;;;7603381;19;20057;-71
2023/04/29 01:54:06;;;;;;;3.80;2.45;;;10.70;99.90;;;;;;7603945;19;20044;-71
2023/04/29 01:56:38;;;;;;;3.90;2.67;;;10.60;99.90;;;;;;7601247;19;20018;-70
2023/04/29 01:59:26;;;;;;;4.00;2.75;;;10.70;99.90;;;;;;7599920;19;20051;-70
2023/04/29 02:02:19;;;;;;;3.63;2.65;;;10.60;99.90;;;;;;7601776;19;20022;-70
2023/04/29 02:05:01;;;;;;;4.80;3.42;;;10.70;99.90;;;;;;7600937;19;21017;-71
2023/04/29 02:07:33;;;;;;;4.68;3.35;;;10.60;99.90;;;;;;7596096;19;20018;-70
2023/04/29 02:10:06;;;;;;;5.28;3.00;;;10.70;99.90;;;;;;7599358;19;20019;-71
2023/04/29 02:12:42;;;;;;;4.72;3.28;;;10.70;99.90;;;;;;7601025;19;20018;-72
2023/04/29 02:15:14;;;;;;;6.60;3.15;;;10.70;99.90;;;;;;7600279;19;20532;-70
2023/04/29 02:17:47;;;;;;;4.22;3.20;;;10.70;99.90;;;;;;7602855;19;20511;-70
2023/04/29 02:20:20;;;;;;;5.47;3.95;;;10.80;99.90;;;;;;7600143;19;20097;-71
2023/04/29 02:22:52;;;;;;;5.55;3.45;;;10.80;99.90;;;;;;7598461;19;20018;-72
2023/04/29 02:25:24;;;;;;;4.35;2.85;;;10.80;99.90;;;;;;7599301;19;20020;-71
2023/04/29 02:27:56;;;;;;;6.82;3.40;;;10.80;99.90;;;;;;7596305;19;20048;-72
2023/04/29 02:30:29;;;;;;;4.00;3.20;;;10.80;99.90;;;;;;7599348;19;20366;-72
2023/04/29 02:33:01;;;;;;;4.40;3.00;;;10.80;99.90;;;;;;7594863;19;20050;-71
2023/04/29 02:35:34;;;;;;;4.45;3.38;;;10.80;99.90;;;;;;7595841;19;20007;-71
2023/04/29 02:38:06;;;;;;;3.38;2.67;;;10.90;99.90;;;;;;7600576;19;20019;-72
2023/04/29 02:40:42;;;;;;;4.30;2.67;;;10.80;99.90;;;;;;7594948;19;20021;-72
2023/04/29 02:43:15;;;;;;;5.57;3.22;;;10.80;99.90;;;;;;7599080;19;20018;-72
2023/04/29 02:45:49;;;;;;;4.38;3.05;;;10.80;99.90;;;;;;7600748;19;20478;-72
2023/04/29 02:48:21;;;;;;;4.93;3.00;;;10.80;99.90;;;;;;7594375;19;20037;-71
2023/04/29 02:51:12;;;;;;;4.25;2.60;;;10.80;99.90;;;;;;7596439;19;20022;-71
2023/04/29 02:54:02;;;;;;;4.07;2.65;;;10.80;99.90;;;;;;7598246;19;20019;-69
2023/04/29 02:56:35;;;;;;;3.53;2.30;;;10.80;99.90;;;;;;7597366;19;20553;-71
2023/04/29 02:59:07;;;;;;;2.72;2.00;;;10.80;99.90;;;;;;7597653;19;20022;-70
2023/04/29 03:01:40;;;;;;;2.83;2.20;;;10.80;99.90;;;;;;7598170;19;20029;-70
2023/04/29 03:04:12;;;;;;;4.50;2.90;;;10.80;99.90;;;;;;7601931;19;20050;-70
2023/04/29 03:06:44;;;;;;;4.30;2.60;;;10.70;99.90;;;;;;7599643;19;20014;-70
2023/04/29 03:09:17;;;;;;;2.88;2.50;;;10.60;99.90;;;;;;7597118;19;20459;-71
2023/04/29 03:11:52;;;;;;;3.63;2.58;;;10.70;99.90;;;;;;7602000;19;20018;-70
2023/04/29 03:14:24;;;;;;;3.95;2.50;;;10.70;99.90;;;;;;7597942;19;20026;-71
2023/04/29 03:16:56;;;;;;;3.72;2.78;;;10.70;99.90;;;;;;7597818;19;20018;-71
2023/04/29 03:19:29;;;;;;;3.13;2.53;;;10.60;99.90;;;;;;7598892;19;20017;-71
2023/04/29 03:22:02;;;;;;;3.30;2.53;;;10.70;99.90;;;;;;7600486;19;20025;-71
2023/04/29 03:24:34;;;;;;;6.10;2.95;;;10.70;99.90;;;;;;7592003;19;20037;-71
2023/04/29 03:27:07;;;;;;;5.35;2.72;;;10.70;99.90;;;;;;7598087;19;20097;-71
2023/04/29 03:29:39;;;;;;;3.88;2.70;;;10.80;99.90;;;;;;7592799;19;20105;-72
2023/04/29 03:32:11;;;;;;;3.35;2.90;;;10.80;99.90;;;;;;7598429;19;20054;-71
2023/04/29 03:34:43;;;;;;;5.07;2.88;;;10.80;99.90;;;;;;7596322;19;20139;-72
2023/04/29 03:37:38;;;;;;;3.42;2.50;;;10.80;99.90;;;;;;7595891;19;20494;-70
2023/04/29 03:40:33;;;;;;;3.88;2.92;;;10.80;99.90;;;;;;7599588;19;20633;-71
2023/04/29 03:43:07;;;;;;;4.47;2.47;;;10.80;99.90;;;;;;7601473;19;20018;-71
2023/04/29 03:45:40;;;;;;;5.22;2.60;;;10.80;99.90;;;;;;7593399;19;20014;-72
2023/04/29 03:48:13;;;;;;;4.53;3.22;;;10.80;99.90;;;;;;7596312;19;20038;-71
2023/04/29 03:50:45;;;;;;;6.00;3.65;;;10.80;99.90;;;;;;7596516;19;20018;-70
2023/04/29 03:53:18;;;;;;;3.80;3.35;;;10.90;99.90;;;;;;7598266;19;20026;-72
2023/04/29 03:55:50;;;;;;;6.15;2.95;;;10.90;99.90;;;;;;7592752;19;20093;-72
2023/04/29 03:58:23;;;;;;;8.05;3.10;;;11.00;99.90;;;;;;7596247;19;20027;-71
2023/04/29 04:00:56;;;;;;;3.22;2.92;;;11.00;99.90;;;;;;7595792;19;20030;-72
2023/04/29 04:03:36;;;;;;;3.25;2.47;;;11.00;99.90;;;;;;7595193;19;20018;-71
2023/04/29 04:06:09;;;;;;;5.03;2.78;;;11.00;99.90;;;;;;7601288;19;20028;-71
2023/04/29 04:08:41;;;;;;;5.30;3.13;;;11.00;99.90;;;;;;7590440;19;20018;-71
2023/04/29 04:11:18;;;;;;;3.85;2.80;;;11.10;99.90;;;;;;7600912;19;20022;-72
2023/04/29 04:13:59;;;;;;;3.55;2.75;;;11.00;99.90;;;;;;7597919;19;20575;-72
2023/04/29 04:16:33;;;;;;;4.10;3.22;;;11.10;99.90;;;;;;7597924;19;20022;-71
2023/04/29 04:19:06;;;;;;;3.15;2.78;;;11.10;99.90;;;;;;7580967;19;20081;-71
2023/04/29 04:21:41;;;;;;;3.80;2.70;;;11.10;99.90;;;;;;7596058;19;20649;-71
2023/04/29 04:24:14;;;;;;;6.80;3.07;;;11.10;99.90;;;;;;7590824;19;20018;-71
2023/04/29 04:26:47;;;;;;;3.85;3.05;;;11.10;99.90;;;;;;7579093;19;20018;-70
2023/04/29 04:29:23;;;;;;;4.65;2.90;;;11.10;99.90;;;;;;7576959;19;20042;-71
2023/04/29 04:32:18;;;;;;;7.30;3.47;;;11.00;99.90;;;;;;7601312;19;20022;-71
2023/04/29 04:34:51;;;;;;;5.32;3.58;;;11.00;99.90;;;;;;7594681;19;20605;-70
2023/04/29 04:37:24;;;;;;;6.05;3.30;;;11.10;99.90;;;;;;7581982;19;20015;-71
2023/04/29 04:40:00;;;;;;;6.25;3.60;;;11.10;99.90;;;;;;7594268;19;20022;-71
2023/04/29 04:42:34;;;;;;;5.45;3.80;;;11.10;99.90;;;;;;7598599;19;20014;-71
2023/04/29 04:45:10;;;;;;;4.90;3.38;;;11.10;99.90;;;;;;7597865;19;20018;-70
2023/04/29 04:47:52;;;;;;;4.53;3.47;;;11.30;99.90;;;;;;7582554;19;20031;-71
2023/04/29 04:50:28;;;;;;;5.10;3.20;;;11.30;99.90;;;;;;7597922;19;20078;-70
2023/04/29 04:53:00;;;;;;;6.65;3.72;;;11.30;99.90;;;;;;7589064;19;20014;-71
2023/04/29 04:55:48;;;;;;;7.70;4.00;;;11.30;99.90;;;;;;7594665;19;20086;-71
2023/04/29 04:58:21;;;;;;;5.78;4.25;;;11.30;99.90;;;;;;7595640;19;20284;-70
2023/04/29 05:00:53;;;;;;;6.13;3.15;;;11.30;99.90;;;;;;7591154;19;20673;-71
2023/04/29 05:03:26;;;;;;;5.03;3.80;;;11.30;99.90;;;;;;7601653;19;20019;-70
2023/04/29 05:05:59;;;;;;;5.17;3.73;;;11.30;99.90;;;;;;7602060;19;20019;-70
2023/04/29 05:08:32;;;;;;;5.35;3.28;;;11.40;99.90;;;;;;7593909;19;20298;-73
2023/04/29 05:11:15;;;;;;;6.40;3.28;;;11.50;99.90;;;;;;7604994;19;20975;-73
2023/04/29 05:13:48;;;;;;;8.38;4.03;;;11.50;99.90;;;;;;7608312;19;20018;-73
2023/04/29 05:16:20;;;;;;;5.00;3.53;;;11.60;99.90;;;;;;7605669;19;20690;-73
2023/04/29 05:18:53;;;;;;;6.57;4.75;;;11.60;99.90;;;;;;7604668;19;21205;-73
2023/04/29 05:21:30;;;;;;;7.60;4.10;;;11.60;99.90;;;;;;7608984;19;20057;-73
2023/04/29 05:24:03;;;;;;;4.88;3.78;;;11.70;99.90;;;;;;7607949;19;20021;-73
2023/04/29 05:26:35;;;;;;;6.43;3.03;;;11.70;99.90;;;;;;7604623;19;20014;-73
2023/04/29 05:29:11;;;;;;;4.75;3.40;;;11.80;99.90;;;;;;7603837;19;20027;-73
2023/04/29 05:31:51;;;;;;;5.88;3.08;;;11.80;99.90;;;;;;7604738;19;20015;-72
2023/04/29 05:34:24;;;;;;;6.05;3.20;;;11.80;99.90;;;;;;7606186;19;20887;-73
2023/04/29 05:36:56;;;;;;;6.47;3.50;;;11.80;99.90;;;;;;7605984;19;20018;-73
2023/04/29 05:39:29;;;;;;;5.63;3.20;;;11.90;99.90;;;;;;7600178;19;20015;-73
2023/04/29 05:42:12;;;;;;;4.85;3.10;;;11.90;99.90;;;;;;7607388;19;20052;-73
2023/04/29 05:44:54;;;;;;;4.63;3.50;;;12.00;99.90;;;;;;7603768;19;20006;-74
2023/04/29 05:47:26;;;;;;;5.40;3.03;;;12.10;99.90;;;;;;7604951;19;21464;-73
2023/04/29 05:49:58;;;;;;;4.85;3.38;;;12.10;99.90;;;;;;7602292;19;20007;-70
2023/04/29 05:52:31;;;;;;;3.78;2.78;;;12.20;99.90;;;;;;7599084;19;20014;-71
2023/04/29 05:55:04;;;;;;;6.10;2.85;;;12.30;99.90;;;;;;7608589;19;20018;-71
2023/04/29 05:57:36;;;;;;;4.90;3.60;;;12.40;99.90;;;;;;7599525;19;20018;-70
2023/04/29 06:00:09;;;;;;;3.40;2.70;;;12.50;99.90;;;;;;7605441;19;20070;-73
2023/04/29 06:02:48;;;;;;;5.75;2.85;;;12.70;99.90;;;;;;7602276;19;20022;-74
2023/04/29 06:05:30;;;;;;;3.97;2.88;;;12.80;99.90;;;;;;7603254;19;21262;-74
2023/04/29 06:08:14;;;;;;;3.95;3.25;;;13.00;99.90;;;;;;7605461;19;20014;-73
2023/04/29 06:10:54;;;;;;;3.22;2.50;;;13.00;99.90;;;;;;7598740;19;20023;-71
2023/04/29 06:13:26;;;;;;;4.68;2.85;;;13.10;99.90;;;;;;7609092;19;21103;-74
2023/04/29 06:15:59;;;;;;;4.97;2.80;;;13.20;99.90;;;;;;7599615;19;20014;-76
2023/04/29 06:18:36;;;;;;;3.97;3.00;;;13.30;99.90;;;;;;7598734;19;20475;-74
2023/04/29 06:21:09;;;;;;;7.28;3.13;;;13.40;99.90;;;;;;7601809;19;20081;-74
2023/04/29 06:23:41;;;;;;;6.85;2.42;;;13.40;99.90;;;;;;7600375;19;20023;-73
2023/04/29 06:26:20;;;;;;;4.25;2.67;;;13.50;99.90;;;;;;7604076;19;20018;-72
2023/04/29 06:28:53;;;;;;;4.53;3.00;;;13.60;99.90;;;;;;7594469;19;21363;-73
2023/04/29 06:31:26;;;;;;;5.25;3.03;;;13.60;99.90;;;;;;7607153;19;20022;-73
2023/04/29 06:34:03;;;;;;;4.63;2.97;;;13.70;99.90;;;;;;7601455;19;21224;-72
2023/04/29 06:36:37;;;;;;;4.43;3.10;;;13.70;99.90;;;;;;7602450;19;20106;-74
2023/04/29 06:39:32;;;;;;;4.15;3.50;;;13.80;99.90;;;;;;7602138;19;20015;-73
2023/04/29 06:42:30;;;;;;;3.67;3.03;;;14.00;99.90;;;;;;7607584;19;20018;-73
2023/04/29 06:45:22;;;;;;;5.00;3.50;;;14.00;99.90;;;;;;7604233;19;20014;-73
2023/04/29 06:48:10;;;;;;;5.25;3.50;;;14.20;99.90;;;;;;7599526;19;20011;-73
2023/04/29 06:50:50;;;;;;;6.60;3.90;;;14.20;99.90;;;;;;7598001;19;20029;-74
2023/04/29 06:53:23;;;;;;;7.63;4.70;;;14.20;99.90;;;;;;7605160;19;20039;-73
2023/04/29 06:55:55;;;;;;;6.30;4.13;;;14.20;99.90;;;;;;7598961;19;20014;-73
2023/04/29 06:58:27;;;;;;;8.30;5.07;;;14.10;99.90;;;;;;7603694;19;20078;-73
2023/04/29 07:01:02;;;;;;;8.57;4.43;;;14.10;99.90;;;;;;7596955;19;20022;-73
2023/04/29 07:03:34;;;;;;;5.80;4.57;;;14.10;99.90;;;;;;7595160;19;20086;-73
2023/04/29 07:06:07;;;;;;;9.45;5.15;;;14.10;99.90;;;;;;7592430;19;20035;-74
2023/04/29 07:08:39;;;;;;;8.82;4.80;;;14.10;99.90;;;;;;7585415;19;20101;-72
2023/04/29 07:11:12;;;;;;;7.45;3.95;;;14.20;99.90;;;;;;7552617;19;20798;-74
2023/04/29 07:13:44;;;;;;;6.10;4.75;;;14.30;99.90;;;;;;7588302;19;20018;-73
2023/04/29 07:16:18;;;;;;;6.68;5.00;;;14.30;99.90;;;;;;7598708;19;20026;-73
2023/04/29 07:18:51;;;;;;;8.85;4.53;;;14.30;99.90;;;;;;7558987;19;20214;-74
2023/04/29 07:21:24;;;;;;;7.40;4.83;;;14.50;99.90;;;;;;7592572;19;22272;-73
2023/04/29 07:23:59;;;;;;;6.78;4.68;;;14.50;99.90;;;;;;7585482;19;20026;-73
2023/04/29 07:26:32;;;;;;;6.03;3.60;;;14.60;99.90;;;;;;7608461;19;20081;-72
2023/04/29 07:29:05;;;;;;;5.53;4.10;;;14.70;99.90;;;;;;7599328;19;20014;-73
2023/04/29 07:31:37;;;;;;;5.47;4.05;;;14.60;99.90;;;;;;7592201;19;20890;-73
2023/04/29 07:34:09;;;;;;;6.57;4.07;;;14.60;99.90;;;;;;7603552;19;20050;-73
2023/04/29 07:36:42;;;;;;;5.50;3.72;;;14.50;99.90;;;;;;7595831;19;20677;-74
2023/04/29 07:39:16;;;;;;;5.88;4.38;;;14.60;99.90;;;;;;7593115;19;20014;-75
2023/04/29 07:41:51;;;;;;;6.78;4.80;;;14.70;99.90;;;;;;7599795;19;20055;-74
2023/04/29 07:44:24;;;;;;;7.82;4.75;;;14.70;99.90;;;;;;7605151;19;20050;-74
2023/04/29 07:46:57;;;;;;;5.75;4.53;;;14.90;99.90;;;;;;7599727;19;20768;-74
2023/04/29 07:49:29;;;;;;;6.63;3.95;;;15.00;99.90;;;;;;7601052;19;20025;-73
2023/04/29 07:52:02;;;;;;;8.00;5.05;;;15.20;99.90;;;;;;7598258;19;21285;-74
2023/04/29 07:54:38;;;;;;;7.55;5.28;;;15.20;99.90;;;;;;7589313;19;20029;-73
2023/04/29 07:57:10;;;;;;;8.45;4.35;;;15.30;99.90;;;;;;7599800;19;20019;-74
2023/04/29 07:59:42;;;;;;;6.82;5.28;;;15.50;99.90;;;;;;7602832;19;20027;-74
2023/04/29 08:02:15;;;;;;;5.00;4.45;;;15.60;99.90;;;;;;7603751;19;21405;-74
2023/04/29 08:04:49;;;;;;;11.23;5.13;;;15.50;99.90;;;;;;7593290;19;22652;-73
2023/04/29 08:07:23;;;;;;;6.70;4.72;;;15.50;99.90;;;;;;7602007;19;20363;-73
2023/04/29 08:09:55;;;;;;;6.53;3.90;;;15.60;99.90;;;;;;7592537;19;20070;-73
2023/04/29 08:12:27;;;;;;;6.78;4.45;;;15.80;99.90;;;;;;7606033;19;20021;-72
2023/04/29 08:15:00;;;;;;;6.20;4.40;;;16.00;99.90;;;;;;7597075;19;20022;-73
2023/04/29 08:17:32;;;;;;;5.03;4.13;;;16.20;99.90;;;;;;7603961;19;20487;-73
2023/04/29 08:20:07;;;;;;;5.57;3.93;;;16.20;99.90;;;;;;7594502;19;20030;-73
2023/04/29 08:22:40;;;;;;;5.85;4.38;;;16.10;99.90;;;;;;7600863;19;20022;-74
2023/04/29 08:25:12;;;;;;;5.85;4.47;;;15.90;99.90;;;;;;7601477;19;20024;-73
2023/04/29 08:27:44;;;;;;;6.57;4.30;;;15.80;99.90;;;;;;7599596;19;20056;-74
2023/04/29 08:30:17;;;;;;;8.07;4.22;;;15.80;99.90;;;;;;7601913;19;20510;-73
2023/04/29 08:32:49;;;;;;;6.57;4.00;;;15.80;99.90;;;;;;7593481;19;20007;-73
2023/04/29 08:35:22;;;;;;;5.13;3.60;;;15.70;99.90;;;;;;7601890;19;20021;-72
2023/04/29 08:37:54;;;;;;;5.95;4.18;;;15.70;99.90;;;;;;7594513;19;20022;-73
2023/04/29 08:40:27;;;;;;;4.55;3.47;;;15.70;99.90;;;;;;7603080;19;20678;-73
2023/04/29 08:43:00;;;;;;;4.57;3.35;;;15.90;99.90;;;;;;7601380;19;20023;-75
2023/04/29 08:45:33;;;;;;;5.03;2.63;;;16.10;99.90;;;;;;7611706;19;20876;-73
2023/04/29 08:48:09;;;;;;;8.00;2.90;;;16.40;99.90;;;;;;7600725;19;20014;-73
2023/04/29 08:50:43;;;;;;;6.70;3.13;;;16.50;99.90;;;;;;7605343;19;20074;-73
2023/04/29 08:53:15;;;;;;;4.15;2.58;;;16.40;99.90;;;;;;7607297;19;20018;-73
2023/04/29 08:55:48;;;;;;;4.13;2.70;;;16.40;99.90;;;;;;7605942;19;20011;-73
2023/04/29 08:58:21;;;;;;;8.85;3.58;;;16.20;99.90;;;;;;7604604;19;20027;-72
2023/04/29 09:00:53;;;;;;;5.00;3.50;;;16.10;99.90;;;;;;7606568;19;20023;-74
2023/04/29 09:04:00;;;;;;;6.93;3.95;;;16.10;99.90;;;;;;7605562;19;20011;-73
2023/04/29 09:06:32;;;;;;;4.10;3.17;;;16.20;99.90;;;;;;7604872;19;20035;-73
2023/04/29 09:09:05;;;;;;;3.22;2.83;;;16.00;99.90;;;;;;7604727;19;20015;-73
2023/04/29 09:11:38;;;;;;;4.93;2.90;;;16.00;99.90;;;;;;7608563;19;20189;-73
2023/04/29 09:14:11;;;;;;;3.70;2.88;;;16.10;99.90;;;;;;7601990;19;20821;-74
2023/04/29 09:16:46;;;;;;;3.83;2.50;;;16.20;99.90;;;;;;7607144;19;20055;-73
2023/04/29 09:19:32;;;;;;;3.65;2.08;;;16.20;99.90;;;;;;7603976;19;20053;-69
2023/04/29 09:22:06;;;;;;;4.18;2.03;;;16.40;99.90;;;;;;7604369;19;20025;-69
2023/04/29 09:24:38;;;;;;;4.10;2.40;;;16.60;99.90;;;;;;7601078;19;20074;-70
2023/04/29 09:27:26;;;;;;;5.47;2.20;;;16.80;99.90;;;;;;7608100;19;20036;-69
2023/04/29 09:30:01;;;;;;;5.10;2.17;;;17.00;99.90;;;;;;7604588;19;20483;-70
2023/04/29 09:32:34;;;;;;;3.42;2.70;;;16.90;99.90;;;;;;7589390;19;20015;-69
2023/04/29 09:35:24;;;;;;;3.95;2.30;;;16.90;99.90;;;;;;7601059;19;20018;-70
2023/04/29 09:38:14;;;;;;;6.68;2.22;;;16.90;99.90;;;;;;7589232;19;20022;-69
2023/04/29 09:40:46;;;;;;;5.53;2.17;;;16.90;99.90;;;;;;7584798;19;20011;-70
2023/04/29 09:43:30;;;;;;;3.00;2.38;;;16.80;99.90;;;;;;7605178;19;20025;-69
2023/04/29 09:46:03;;;;;;;3.60;2.55;;;16.70;99.90;;;;;;7601993;19;20015;-70
2023/04/29 09:48:35;;;;;;;3.20;2.28;;;16.70;99.90;;;;;;7595935;19;20014;-70
2023/04/29 09:51:07;;;;;;;4.13;2.10;;;16.70;99.90;;;;;;7587908;19;20011;-70
2023/04/29 09:53:40;;;;;;;2.53;1.97;;;16.70;99.90;;;;;;7593717;19;20046;-69
2023/04/29 09:56:12;;;;;;;2.63;2.00;;;16.80;99.90;;;;;;7603466;19;20046;-70
2023/04/29 09:58:44;;;;;;;6.15;2.53;;;16.90;99.90;;;;;;7604815;19;20018;-70
2023/04/29 10:01:20;;;;;;;3.07;2.30;;;17.00;99.90;;;;;;7599429;19;20022;-70
2023/04/29 10:03:53;;;;;;;4.30;2.08;;;17.00;99.90;;;;;;7601003;19;20106;-69
2023/04/29 10:06:27;;;;;;;2.75;1.90;;;17.10;99.90;;;;;;7612465;19;20067;-70
2023/04/29 10:09:00;;;;;;;12.18;2.15;;;17.30;99.90;;;;;;7597196;19;20521;-71
2023/04/29 10:11:35;;;;;;;2.33;1.88;;;17.20;99.90;;;;;;7608152;19;20527;-70
2023/04/29 10:14:12;;;;;;;12.00;2.33;;;16.90;97.20;;;;;;7597533;19;20944;-69
2023/04/29 10:16:48;;;;;;;3.42;1.83;;;16.70;98.10;;;;;;7606909;19;20022;-70
2023/04/29 10:19:23;;;;;;;3.67;1.88;;;16.50;97.80;;;;;;7602143;19;20030;-71
2023/04/29 10:21:59;;;;;;;4.30;2.08;;;16.50;98.80;;;;;;7600963;19;20060;-70
2023/04/29 10:24:36;;;;;;;3.30;2.03;;;16.50;98.40;;;;;;7603842;19;20032;-71
2023/04/29 10:27:13;;;;;;;3.40;2.20;;;16.70;98.50;;;;;;7602817;19;20404;-70
2023/04/29 10:29:49;;;;;;;3.13;1.77;;;17.00;98.20;;;;;;7604475;19;20025;-71
2023/04/29 10:32:23;;;;;;;3.63;1.83;;;17.30;96.50;;;;;;7605738;19;20019;-71
2023/04/29 10:34:57;;;;;;;2.22;1.75;;;17.50;96.60;;;;;;7604989;19;20029;-69
2023/04/29 10:37:30;;;;;;;2.03;1.60;;;17.70;96.90;;;;;;7602803;19;20402;-72
2023/04/29 10:40:17;;;;;;;2.63;1.83;;;17.70;94.70;;;;;;7602467;19;20098;-71
2023/04/29 10:42:53;;;;;;;1.88;1.48;;;17.60;95.90;;;;;;7603027;19;20026;-70
2023/04/29 10:45:31;;;;;;;3.45;2.55;;;17.60;96.30;;;;;;7606087;19;22269;-71
2023/04/29 10:50:47;;;;;;;4.35;2.75;;;17.40;99.90;;;;;;7604140;19;21050;-71
2023/04/29 10:53:20;;;;;;;3.13;2.60;;;17.60;99.90;;;;;;7604158;19;20022;-71
2023/04/29 10:56:13;;;;;;;4.82;2.90;;;17.70;99.90;;;;;;7604616;19;20024;-71
2023/04/29 10:58:45;;;;;;;4.15;3.05;;;17.90;99.90;;;;;;7609087;19;20090;-71
2023/04/29 11:01:42;;;;;;;4.30;3.10;;;17.90;99.90;;;;;;7607141;19;20019;-71
2023/04/29 11:04:15;;;;;;;4.18;2.85;;;18.20;99.90;;;;;;7607082;19;20105;-71
2023/04/29 11:06:52;;;;;;;3.53;3.03;;;18.60;99.90;;;;;;7610132;19;20018;-70
2023/04/29 11:09:26;;;;;;;5.28;3.20;;;19.00;97.10;;;;;;7612289;19;20630;-70
2023/04/29 11:12:04;;;;;;;5.63;3.13;;;18.80;94.70;;;;;;7600197;19;20025;-69
2023/04/29 11:14:48;;;;;;;7.90;3.00;;;18.70;96.20;;;;;;7603629;19;20018;-69
2023/04/29 11:17:22;;;;;;;;;;;18.30;93.80;;;;;;7606991;19;20455;-69
2023/04/29 11:19:55;;;;;;;;;;;18.20;93.30;;;;;;7597908;19;19933;-70
2023/04/29 11:22:29;;;;;;;3.75;2.53;;;18.10;94.80;;;;;;7604897;19;19922;-70
2023/04/29 11:25:04;;;;;;;;;;;17.80;93.00;;;;;;7595700;19;20344;-68
2023/04/29 11:27:39;;;;;;;4.55;2.38;;;17.70;94.50;;;;;;7604742;19;19933;-70
2023/04/29 11:30:12;;;;;;;3.28;2.63;;;17.70;96.10;;;;;;7595965;19;20020;-70
2023/04/29 11:32:44;;;;;;;4.10;2.60;;;17.80;95.30;;;;;;7605501;19;20022;-70
2023/04/29 11:35:18;;;;;;;2.70;2.33;;;18.10;94.50;;;;;;7597716;19;20026;-70
2023/04/29 11:37:54;;;;;;;;;;;18.20;93.60;;;;;;7602303;19;20065;-71
2023/04/29 11:40:26;;;;;;;5.45;2.30;;;18.40;92.70;;;;;;7604892;19;19927;-69
2023/04/29 11:42:58;;;;;;;4.63;2.28;;;18.30;91.30;;;;;;7609062;19;20034;-71
2023/04/29 11:45:34;;;;;;;4.78;2.13;;;18.60;90.80;;;;;;7605864;19;20026;-71
2023/04/29 11:48:06;;;;;;;1.90;1.65;;;19.10;88.30;;;;;;7597961;19;20081;-70
2023/04/29 11:50:41;;;;;;;2.20;1.90;;;19.40;82.60;;;;;;7606347;19;20050;-70
2023/04/29 11:53:13;;;;;;;3.97;2.00;;;19.30;82.90;;;;;;7597983;19;20033;-70
2023/04/29 11:55:46;;;;;;;3.95;2.00;;;19.30;80.80;;;;;;7602943;19;20486;-70
2023/04/29 11:58:22;;;;;;;2.35;1.90;;;19.70;85.80;;;;;;7594706;19;20085;-70
2023/04/29 12:00:58;;;;;;;5.50;1.90;;;20.30;79.80;;;;;;7600121;19;20664;-70
2023/04/29 12:03:32;;;;;;;2.70;1.83;;;20.30;79.50;;;;;;7600066;19;20022;-71
2023/04/29 12:06:05;;;;;;;2.58;2.08;;;20.40;77.80;;;;;;7598597;19;20022;-70
2023/04/29 12:08:39;;;;;;;5.53;1.75;;;20.50;77.20;;;;;;7601904;19;20014;-69
2023/04/29 12:11:12;;;;;;;2.17;1.48;;;20.70;78.10;;;;;;7595203;19;20538;-70
2023/04/29 12:13:45;;;;;;;3.75;1.58;;;20.60;76.20;;;;;;7603257;19;20014;-69
2023/04/29 12:16:17;;;;;;;1.73;1.42;;;20.80;77.90;;;;;;7597034;19;20381;-69
2023/04/29 12:18:51;;;;;;;4.57;1.83;;;21.20;74.40;;;;;;7603820;19;20810;-70
2023/04/29 12:21:25;;;;;;;2.20;1.38;;;21.30;70.30;;;;;;7599106;19;20014;-71
2023/04/29 12:24:01;;;;;;;3.30;1.63;;;21.10;70.90;;;;;;7589701;19;20362;-70
2023/04/29 12:26:34;;;;;;;1.77;1.33;;;20.80;73.30;;;;;;7594717;19;20959;-70
2023/04/29 12:29:09;;;;;;;4.85;1.58;;;21.30;73.60;;;;;;7584274;19;20793;-69
2023/04/29 12:31:46;;;;;;;2.00;1.38;;;21.70;68.70;;;;;;7578745;19;20947;-70
2023/04/29 12:34:28;;;;;;;3.85;1.65;;;21.90;68.40;;;;;;7587220;19;20011;-71
2023/04/29 12:37:01;;;;;;;3.10;1.50;;;22.10;65.50;;;;;;7597023;19;20014;-70
2023/04/29 12:39:33;;;;;;;1.60;1.48;;;21.70;66.20;;;;;;7569647;19;20018;-71
2023/04/29 12:42:05;;;;;;;1.48;1.35;;;21.20;66.70;;;;;;7593315;19;20026;-71
2023/04/29 12:44:38;;;;;;;1.92;1.42;;;21.20;68.90;;;;;;7597763;19;20035;-72
2023/04/29 12:47:12;;;;;;;2.45;1.23;;;21.40;67.40;;;;;;7592834;19;20003;-71
2023/04/29 12:49:46;;;;;;;2.70;1.35;;;21.10;66.50;;;;;;7596279;19;20044;-72
2023/04/29 12:52:18;;;;;;;1.65;1.40;;;21.00;67.40;;;;;;7582399;19;20617;-70
2023/04/29 12:54:50;;;;;;;1.83;1.23;;;20.80;66.30;;;;;;7581823;19;20033;-70
2023/04/29 12:57:25;;;;;;;3.53;1.70;;;20.80;67.20;;;;;;7598359;19;20011;-71
2023/04/29 12:59:57;;;;;;;3.25;1.88;;;20.60;66.60;;;;;;7595671;19;20575;-69
2023/04/29 13:02:29;;;;;;;9.13;1.60;;;20.90;67.10;;;;;;7599633;19;20021;-70
2023/04/29 13:05:03;;;;;;;2.83;1.50;;;21.40;68.20;;;;;;7593013;19;20025;-69
2023/04/29 13:07:36;;;;;;;3.88;1.30;;;21.50;65.30;;;;;;7599743;19;20700;-71
2023/04/29 13:10:10;;;;;;;8.18;1.63;;;21.60;65.50;;;;;;7600265;19;20015;-70
2023/04/29 13:12:43;;;;;;;2.45;1.58;;;21.40;66.00;;;;;;7606496;19;20953;-74
2023/04/29 13:15:16;;;;;;;2.25;1.70;;;21.40;66.40;;;;;;7601489;19;20400;-69
2023/04/29 13:17:48;;;;;;;1.83;1.73;;;21.30;65.10;;;;;;7601051;19;20104;-70
2023/04/29 13:20:20;;;;;;;3.33;1.80;;;21.50;65.10;;;;;;7592813;19;20014;-70
2023/04/29 13:22:53;;;;;;;3.10;1.30;;;21.90;67.20;;;;;;7594287;19;20430;-70
2023/04/29 13:25:25;;;;;;;2.70;1.70;;;22.40;63.50;;;;;;7602628;19;20014;-70
2023/04/29 13:27:57;;;;;;;4.72;1.40;;;22.30;61.80;;;;;;7608151;19;20023;-71
2023/04/29 13:30:30;;;;;;;1.85;1.25;;;21.50;63.80;;;;;;7607459;19;20633;-69
2023/04/29 13:33:02;;;;;;;1.67;1.58;;;21.60;65.30;;;;;;7603634;19;20557;-69